UAL212 KMRY-KDEN
Flight info
| Callsign | UAL212 |
|---|---|
| Flight time | 2h 3m |
| Altitude | 37000 |
| Route | SNS PXN NTELL OAL KATTS KITTN BUMMP SSKII4 |
| Aircraft | A21N/M-SDE3FGHIRWY/LB1 |
Departure
| Time | 2026-04-20 15:00 |
|---|---|
| Airport | Monterey Regional Airport (KMRY) |
Arrival
| Time | 2026-04-20 17:03 |
|---|---|
| Airport | Denver International Airport (KDEN) |
| Time | Latitude | Longitude | Altitude | Speed | Heading |
|---|---|---|---|---|---|
| 2026-04-20 14:46 | 36.58725 | -121.84921 | 176 ft | 0 kts | 233° |
| 2026-04-20 14:52 | 36.58730 | -121.84914 | 176 ft | 2 kts | 233° |
| 2026-04-20 14:52 | 36.58738 | -121.84899 | 176 ft | 2 kts | 233° |
| 2026-04-20 14:52 | 36.58747 | -121.84884 | 176 ft | 2 kts | 245° |
| 2026-04-20 14:52 | 36.58751 | -121.84866 | 176 ft | 2 kts | 263° |
| 2026-04-20 14:53 | 36.58751 | -121.84848 | 176 ft | 2 kts | 280° |
| 2026-04-20 14:53 | 36.58749 | -121.84836 | 176 ft | 0 kts | 291° |
| 2026-04-20 14:53 | 36.58746 | -121.84828 | 176 ft | 0 kts | 294° |
| 2026-04-20 14:56 | 36.58747 | -121.84831 | 176 ft | 1 kts | 294° |
| 2026-04-20 14:56 | 36.58757 | -121.84857 | 176 ft | 5 kts | 294° |
| 2026-04-20 14:56 | 36.58775 | -121.84911 | 176 ft | 8 kts | 291° |
| 2026-04-20 14:56 | 36.58801 | -121.84991 | 176 ft | 11 kts | 292° |
| 2026-04-20 14:57 | 36.58836 | -121.85094 | 176 ft | 14 kts | 292° |
| 2026-04-20 14:57 | 36.58878 | -121.85217 | 176 ft | 16 kts | 292° |
| 2026-04-20 14:57 | 36.58922 | -121.85347 | 176 ft | 9 kts | 292° |
| 2026-04-20 14:57 | 36.58937 | -121.85408 | 176 ft | 7 kts | 283° |
| 2026-04-20 14:58 | 36.58950 | -121.85479 | 176 ft | 8 kts | 283° |
| 2026-04-20 14:58 | 36.58972 | -121.85555 | 176 ft | 9 kts | 297° |
| 2026-04-20 14:58 | 36.59023 | -121.85604 | 176 ft | 10 kts | 11° |
| 2026-04-20 14:58 | 36.59078 | -121.85557 | 176 ft | 10 kts | 93° |
| 2026-04-20 14:59 | 36.59031 | -121.85416 | 176 ft | 40 kts | 112° |
| 2026-04-20 14:59 | 36.58828 | -121.84810 | 176 ft | 109 kts | 112° |
| 2026-04-20 14:59 | 36.58460 | -121.83720 | 189 ft | 162 kts | 112° |
| 2026-04-20 14:59 | 36.58032 | -121.82419 | 782 ft | 162 kts | 111° |
| 2026-04-20 15:00 | 36.57699 | -121.81106 | 1463 ft | 163 kts | 96° |
| 2026-04-20 15:00 | 36.57835 | -121.79733 | 2092 ft | 162 kts | 68° |
| 2026-04-20 15:00 | 36.58411 | -121.78502 | 2498 ft | 171 kts | 58° |
| 2026-04-20 15:00 | 36.59058 | -121.77187 | 2829 ft | 186 kts | 60° |
| 2026-04-20 15:01 | 36.59729 | -121.75738 | 3170 ft | 203 kts | 61° |
| 2026-04-20 15:01 | 36.60445 | -121.74133 | 3527 ft | 220 kts | 62° |
| 2026-04-20 15:01 | 36.61206 | -121.72387 | 3819 ft | 242 kts | 62° |
| 2026-04-20 15:01 | 36.62029 | -121.70476 | 4220 ft | 260 kts | 63° |
| 2026-04-20 15:02 | 36.62900 | -121.68442 | 4791 ft | 271 kts | 63° |
| 2026-04-20 15:02 | 36.63785 | -121.66376 | 5533 ft | 275 kts | 63° |
| 2026-04-20 15:02 | 36.64691 | -121.64262 | 6279 ft | 279 kts | 63° |
| 2026-04-20 15:02 | 36.65596 | -121.62136 | 6957 ft | 284 kts | 64° |
| 2026-04-20 15:03 | 36.66304 | -121.59843 | 7630 ft | 286 kts | 77° |
| 2026-04-20 15:03 | 36.66623 | -121.57394 | 8306 ft | 288 kts | 86° |
| 2026-04-20 15:03 | 36.66789 | -121.54912 | 8924 ft | 292 kts | 88° |
| 2026-04-20 15:03 | 36.66935 | -121.52405 | 9531 ft | 295 kts | 88° |
| 2026-04-20 15:04 | 36.67086 | -121.49864 | 10110 ft | 299 kts | 88° |
| 2026-04-20 15:04 | 36.67244 | -121.47237 | 10505 ft | 309 kts | 88° |
| 2026-04-20 15:04 | 36.67411 | -121.44516 | 10783 ft | 325 kts | 88° |
| 2026-04-20 15:04 | 36.67587 | -121.41686 | 11189 ft | 334 kts | 88° |
| 2026-04-20 15:05 | 36.67773 | -121.38800 | 11764 ft | 337 kts | 88° |
| 2026-04-20 15:05 | 36.67963 | -121.35907 | 12325 ft | 339 kts | 89° |
| 2026-04-20 15:05 | 36.68155 | -121.32966 | 12859 ft | 342 kts | 90° |
| 2026-04-20 15:05 | 36.68344 | -121.30000 | 13391 ft | 345 kts | 90° |
| 2026-04-20 15:06 | 36.68536 | -121.27012 | 13896 ft | 347 kts | 90° |
| 2026-04-20 15:06 | 36.68723 | -121.24022 | 14390 ft | 351 kts | 90° |
| 2026-04-20 15:06 | 36.68915 | -121.20965 | 14948 ft | 355 kts | 91° |
| 2026-04-20 15:06 | 36.69105 | -121.17902 | 15515 ft | 359 kts | 91° |
| 2026-04-20 15:07 | 36.69295 | -121.14805 | 16083 ft | 363 kts | 91° |
| 2026-04-20 15:07 | 36.69488 | -121.11667 | 16637 ft | 367 kts | 91° |
| 2026-04-20 15:07 | 36.69685 | -121.08462 | 17183 ft | 371 kts | 91° |
| 2026-04-20 15:07 | 36.69883 | -121.05254 | 17712 ft | 376 kts | 91° |
| 2026-04-20 15:08 | 36.70083 | -121.02013 | 18235 ft | 380 kts | 91° |
| 2026-04-20 15:08 | 36.70285 | -120.98716 | 18715 ft | 383 kts | 91° |
| 2026-04-20 15:08 | 36.70486 | -120.95428 | 19089 ft | 386 kts | 91° |
| 2026-04-20 15:08 | 36.70689 | -120.92091 | 19457 ft | 388 kts | 91° |
| 2026-04-20 15:09 | 36.70891 | -120.88721 | 19819 ft | 392 kts | 91° |
| 2026-04-20 15:09 | 36.71092 | -120.85355 | 20197 ft | 394 kts | 91° |
| 2026-04-20 15:09 | 36.71296 | -120.81952 | 20575 ft | 397 kts | 90° |
| 2026-04-20 15:09 | 36.71611 | -120.78513 | 20994 ft | 402 kts | 86° |
| 2026-04-20 15:10 | 36.72121 | -120.75086 | 21414 ft | 407 kts | 82° |
| 2026-04-20 15:10 | 36.72800 | -120.71685 | 21815 ft | 411 kts | 79° |
| 2026-04-20 15:10 | 36.73537 | -120.68213 | 22210 ft | 415 kts | 79° |
| 2026-04-20 15:10 | 36.74280 | -120.64738 | 22565 ft | 419 kts | 79° |
| 2026-04-20 15:11 | 36.75030 | -120.61216 | 22909 ft | 423 kts | 79° |
| 2026-04-20 15:11 | 36.75773 | -120.57704 | 23267 ft | 426 kts | 79° |
| 2026-04-20 15:11 | 36.76522 | -120.54137 | 23627 ft | 428 kts | 79° |
| 2026-04-20 15:11 | 36.77278 | -120.50532 | 23981 ft | 431 kts | 79° |
| 2026-04-20 15:12 | 36.78035 | -120.46909 | 24349 ft | 434 kts | 79° |
| 2026-04-20 15:12 | 36.78794 | -120.43268 | 24724 ft | 436 kts | 79° |
| 2026-04-20 15:12 | 36.79553 | -120.39622 | 25088 ft | 439 kts | 78° |
| 2026-04-20 15:12 | 36.80318 | -120.35935 | 25440 ft | 441 kts | 78° |
| 2026-04-20 15:13 | 36.81091 | -120.32211 | 25769 ft | 444 kts | 79° |
| 2026-04-20 15:13 | 36.81871 | -120.28442 | 26115 ft | 447 kts | 79° |
| 2026-04-20 15:13 | 36.82646 | -120.24691 | 26461 ft | 449 kts | 79° |
| 2026-04-20 15:13 | 36.83423 | -120.20922 | 26818 ft | 451 kts | 78° |
| 2026-04-20 15:14 | 36.84198 | -120.17157 | 27144 ft | 453 kts | 78° |
| 2026-04-20 15:14 | 36.84984 | -120.13343 | 27458 ft | 455 kts | 78° |
| 2026-04-20 15:14 | 36.85775 | -120.09494 | 27775 ft | 458 kts | 78° |
| 2026-04-20 15:14 | 36.86562 | -120.05656 | 28093 ft | 460 kts | 78° |
| 2026-04-20 15:15 | 36.87354 | -120.01786 | 28403 ft | 462 kts | 78° |
| 2026-04-20 15:15 | 36.88144 | -119.97911 | 28705 ft | 465 kts | 78° |
| 2026-04-20 15:15 | 36.88979 | -119.93964 | 29018 ft | 468 kts | 75° |
| 2026-04-20 15:15 | 36.90092 | -119.90136 | 29309 ft | 473 kts | 65° |
| 2026-04-20 15:16 | 36.91663 | -119.86545 | 29638 ft | 475 kts | 60° |
| 2026-04-20 15:16 | 36.93354 | -119.83025 | 29977 ft | 476 kts | 58° |
| 2026-04-20 15:16 | 36.95143 | -119.79492 | 30328 ft | 477 kts | 57° |
| 2026-04-20 15:16 | 36.96954 | -119.76017 | 30677 ft | 478 kts | 57° |
| 2026-04-20 15:17 | 36.98762 | -119.72597 | 31027 ft | 479 kts | 56° |
| 2026-04-20 15:17 | 37.00623 | -119.69095 | 31363 ft | 480 kts | 56° |
| 2026-04-20 15:17 | 37.02454 | -119.65656 | 31671 ft | 482 kts | 56° |
| 2026-04-20 15:17 | 37.04322 | -119.62151 | 31996 ft | 482 kts | 56° |
| 2026-04-20 15:18 | 37.06180 | -119.58666 | 32351 ft | 481 kts | 56° |
| 2026-04-20 15:18 | 37.08031 | -119.55189 | 32715 ft | 480 kts | 55° |
| 2026-04-20 15:18 | 37.09869 | -119.51733 | 33065 ft | 480 kts | 55° |
| 2026-04-20 15:18 | 37.11703 | -119.48281 | 33400 ft | 479 kts | 55° |
| 2026-04-20 15:19 | 37.13540 | -119.44820 | 33741 ft | 478 kts | 55° |
| 2026-04-20 15:19 | 37.15380 | -119.41347 | 34088 ft | 478 kts | 55° |
| 2026-04-20 15:19 | 37.17205 | -119.37902 | 34428 ft | 477 kts | 55° |
| 2026-04-20 15:19 | 37.19046 | -119.34422 | 34720 ft | 477 kts | 55° |
| 2026-04-20 15:20 | 37.20885 | -119.30943 | 34927 ft | 479 kts | 55° |
| 2026-04-20 15:20 | 37.22723 | -119.27464 | 35116 ft | 480 kts | 55° |
| 2026-04-20 15:20 | 37.24566 | -119.23972 | 35317 ft | 482 kts | 55° |
| 2026-04-20 15:20 | 37.26392 | -119.20508 | 35473 ft | 483 kts | 55° |
| 2026-04-20 15:21 | 37.28249 | -119.16981 | 35532 ft | 482 kts | 55° |
| 2026-04-20 15:21 | 37.30091 | -119.13477 | 35808 ft | 479 kts | 55° |
| 2026-04-20 15:21 | 37.31901 | -119.10028 | 36209 ft | 472 kts | 55° |
| 2026-04-20 15:21 | 37.33674 | -119.06647 | 36661 ft | 464 kts | 55° |
| 2026-04-20 15:22 | 37.35450 | -119.03258 | 37149 ft | 458 kts | 55° |
| 2026-04-20 15:22 | 37.37186 | -118.99942 | 37432 ft | 459 kts | 55° |
| 2026-04-20 15:22 | 37.38943 | -118.96587 | 37576 ft | 464 kts | 55° |
| 2026-04-20 15:23 | 37.42520 | -118.89743 | 37597 ft | 474 kts | 55° |
| 2026-04-20 15:23 | 37.46128 | -118.82819 | 37530 ft | 474 kts | 55° |
| 2026-04-20 15:24 | 37.49745 | -118.75861 | 37444 ft | 473 kts | 55° |
| 2026-04-20 15:24 | 37.53334 | -118.68951 | 37316 ft | 474 kts | 55° |
| 2026-04-20 15:25 | 37.56930 | -118.62011 | 37196 ft | 474 kts | 55° |
| 2026-04-20 15:25 | 37.60515 | -118.55077 | 37133 ft | 474 kts | 54° |
| 2026-04-20 15:26 | 37.64107 | -118.48113 | 37097 ft | 475 kts | 54° |
| 2026-04-20 15:26 | 37.67684 | -118.41164 | 37082 ft | 475 kts | 54° |
| 2026-04-20 15:27 | 37.71291 | -118.34148 | 36789 ft | 475 kts | 55° |
| 2026-04-20 15:27 | 37.73070 | -118.30682 | 36560 ft | 475 kts | 55° |
| 2026-04-20 15:27 | 37.74864 | -118.27180 | 36305 ft | 476 kts | 55° |
| 2026-04-20 15:27 | 37.76657 | -118.23677 | 36056 ft | 476 kts | 55° |
| 2026-04-20 15:28 | 37.78452 | -118.20164 | 36029 ft | 475 kts | 55° |
| 2026-04-20 15:28 | 37.80226 | -118.16688 | 36225 ft | 470 kts | 55° |
| 2026-04-20 15:28 | 37.81965 | -118.13276 | 36485 ft | 464 kts | 55° |
| 2026-04-20 15:28 | 37.83710 | -118.09850 | 36725 ft | 458 kts | 55° |
| 2026-04-20 15:29 | 37.85426 | -118.06479 | 37006 ft | 457 kts | 55° |
| 2026-04-20 15:29 | 37.87144 | -118.03101 | 37166 ft | 462 kts | 55° |
| 2026-04-20 15:29 | 37.88886 | -117.99674 | 37235 ft | 469 kts | 55° |
| 2026-04-20 15:30 | 37.92444 | -117.92660 | 37196 ft | 476 kts | 55° |
| 2026-04-20 15:30 | 37.96003 | -117.85622 | 37126 ft | 476 kts | 55° |
| 2026-04-20 15:31 | 37.99279 | -117.78349 | 37083 ft | 478 kts | 62° |
| 2026-04-20 15:31 | 38.01835 | -117.70614 | 37058 ft | 480 kts | 69° |
| 2026-04-20 15:32 | 38.03795 | -117.62533 | 37097 ft | 481 kts | 72° |
| 2026-04-20 15:32 | 38.05675 | -117.54401 | 37136 ft | 481 kts | 72° |
| 2026-04-20 15:33 | 38.07568 | -117.46261 | 37152 ft | 482 kts | 72° |
| 2026-04-20 15:33 | 38.09451 | -117.38177 | 37151 ft | 481 kts | 72° |
| 2026-04-20 15:34 | 38.11352 | -117.30001 | 37144 ft | 481 kts | 72° |
| 2026-04-20 15:34 | 38.13232 | -117.21893 | 37143 ft | 481 kts | 72° |
| 2026-04-20 15:35 | 38.15106 | -117.13778 | 37143 ft | 481 kts | 72° |
| 2026-04-20 15:35 | 38.16977 | -117.05647 | 37137 ft | 481 kts | 72° |
| 2026-04-20 15:36 | 38.18852 | -116.97475 | 37127 ft | 481 kts | 72° |
| 2026-04-20 15:36 | 38.20703 | -116.89368 | 37127 ft | 481 kts | 72° |
| 2026-04-20 15:37 | 38.22555 | -116.81228 | 37132 ft | 481 kts | 72° |
| 2026-04-20 15:37 | 38.24404 | -116.73080 | 37143 ft | 480 kts | 72° |
| 2026-04-20 15:38 | 38.26250 | -116.64923 | 37156 ft | 480 kts | 72° |
| 2026-04-20 15:38 | 38.28084 | -116.56781 | 37166 ft | 480 kts | 72° |
| 2026-04-20 15:39 | 38.29907 | -116.48662 | 37168 ft | 480 kts | 72° |
| 2026-04-20 15:39 | 38.31706 | -116.40507 | 37152 ft | 480 kts | 73° |
| 2026-04-20 15:40 | 38.32952 | -116.32213 | 37121 ft | 481 kts | 82° |
| 2026-04-20 15:40 | 38.33381 | -116.23734 | 37084 ft | 481 kts | 89° |
| 2026-04-20 15:41 | 38.33379 | -116.15259 | 37059 ft | 481 kts | 89° |
| 2026-04-20 15:41 | 38.33361 | -116.06729 | 37049 ft | 480 kts | 89° |
| 2026-04-20 15:42 | 38.33353 | -115.98276 | 37051 ft | 480 kts | 89° |
| 2026-04-20 15:42 | 38.33347 | -115.89795 | 37046 ft | 480 kts | 89° |
| 2026-04-20 15:43 | 38.33335 | -115.81355 | 37035 ft | 480 kts | 89° |
| 2026-04-20 15:43 | 38.33318 | -115.72898 | 37029 ft | 479 kts | 89° |
| 2026-04-20 15:44 | 38.33295 | -115.64448 | 37056 ft | 479 kts | 89° |
| 2026-04-20 15:44 | 38.33266 | -115.55996 | 37101 ft | 479 kts | 89° |
| 2026-04-20 15:45 | 38.33231 | -115.47514 | 37159 ft | 479 kts | 89° |
| 2026-04-20 15:45 | 38.33187 | -115.39024 | 37165 ft | 479 kts | 89° |
| 2026-04-20 15:46 | 38.33139 | -115.30621 | 37129 ft | 479 kts | 89° |
| 2026-04-20 15:46 | 38.33086 | -115.22178 | 37080 ft | 479 kts | 89° |
| 2026-04-20 15:47 | 38.33026 | -115.13662 | 37051 ft | 479 kts | 89° |
| 2026-04-20 15:47 | 38.32962 | -115.05220 | 37042 ft | 479 kts | 89° |
| 2026-04-20 15:48 | 38.32890 | -114.96787 | 37050 ft | 478 kts | 89° |
| 2026-04-20 15:48 | 38.32789 | -114.88352 | 37066 ft | 477 kts | 89° |
| 2026-04-20 15:49 | 38.32669 | -114.79942 | 37081 ft | 476 kts | 89° |
| 2026-04-20 15:49 | 38.32547 | -114.71563 | 37100 ft | 476 kts | 89° |
| 2026-04-20 15:50 | 38.32422 | -114.63154 | 37114 ft | 475 kts | 89° |
| 2026-04-20 15:50 | 38.32291 | -114.54738 | 37120 ft | 475 kts | 89° |
| 2026-04-20 15:51 | 38.32156 | -114.46424 | 37122 ft | 474 kts | 88° |
| 2026-04-20 15:51 | 38.32014 | -114.38052 | 37133 ft | 473 kts | 88° |
| 2026-04-20 15:52 | 38.31868 | -114.29717 | 37149 ft | 473 kts | 89° |
| 2026-04-20 15:52 | 38.31714 | -114.21395 | 37165 ft | 472 kts | 89° |
| 2026-04-20 15:53 | 38.31473 | -114.08907 | 37166 ft | 472 kts | 89° |
| 2026-04-20 15:53 | 38.31306 | -114.00552 | 37163 ft | 472 kts | 89° |
| 2026-04-20 15:54 | 38.31133 | -113.92235 | 37168 ft | 471 kts | 89° |
| 2026-04-20 15:54 | 38.30954 | -113.83933 | 37190 ft | 471 kts | 88° |
| 2026-04-20 15:55 | 38.30770 | -113.75639 | 37211 ft | 471 kts | 89° |
| 2026-04-20 15:55 | 38.30580 | -113.67327 | 37216 ft | 471 kts | 89° |
| 2026-04-20 15:56 | 38.30385 | -113.59064 | 37219 ft | 470 kts | 89° |
| 2026-04-20 15:56 | 38.30182 | -113.50747 | 37224 ft | 471 kts | 89° |
| 2026-04-20 15:57 | 38.29975 | -113.42479 | 37222 ft | 471 kts | 89° |
| 2026-04-20 15:57 | 38.29763 | -113.34177 | 37208 ft | 471 kts | 89° |
| 2026-04-20 15:58 | 38.29544 | -113.25845 | 37190 ft | 471 kts | 90° |
| 2026-04-20 15:58 | 38.29319 | -113.17569 | 37174 ft | 471 kts | 90° |
| 2026-04-20 15:59 | 38.29087 | -113.09221 | 37160 ft | 471 kts | 90° |
| 2026-04-20 15:59 | 38.28850 | -113.00951 | 37148 ft | 471 kts | 90° |
| 2026-04-20 16:00 | 38.28606 | -112.92624 | 37146 ft | 471 kts | 90° |
| 2026-04-20 16:00 | 38.28357 | -112.84337 | 37155 ft | 471 kts | 90° |
| 2026-04-20 16:01 | 38.28104 | -112.76071 | 37171 ft | 471 kts | 90° |
| 2026-04-20 16:01 | 38.27842 | -112.67741 | 37202 ft | 470 kts | 91° |
| 2026-04-20 16:02 | 38.27577 | -112.59490 | 37260 ft | 470 kts | 91° |
| 2026-04-20 16:02 | 38.27304 | -112.51184 | 37329 ft | 470 kts | 91° |
| 2026-04-20 16:03 | 38.27027 | -112.42933 | 37371 ft | 470 kts | 91° |
| 2026-04-20 16:03 | 38.26743 | -112.34633 | 37341 ft | 470 kts | 92° |
| 2026-04-20 16:04 | 38.26454 | -112.26352 | 37287 ft | 470 kts | 92° |
| 2026-04-20 16:04 | 38.26159 | -112.18087 | 37257 ft | 469 kts | 92° |
| 2026-04-20 16:05 | 38.25857 | -112.09800 | 37249 ft | 469 kts | 92° |
| 2026-04-20 16:05 | 38.25552 | -112.01568 | 37246 ft | 469 kts | 92° |
| 2026-04-20 16:06 | 38.25238 | -111.93266 | 37248 ft | 469 kts | 92° |
| 2026-04-20 16:06 | 38.24920 | -111.85006 | 37256 ft | 469 kts | 92° |
| 2026-04-20 16:07 | 38.24596 | -111.76741 | 37275 ft | 469 kts | 92° |
| 2026-04-20 16:07 | 38.24266 | -111.68443 | 37292 ft | 469 kts | 92° |
| 2026-04-20 16:08 | 38.23933 | -111.60216 | 37299 ft | 469 kts | 92° |
| 2026-04-20 16:08 | 38.23591 | -111.51920 | 37310 ft | 469 kts | 92° |
| 2026-04-20 16:09 | 38.23244 | -111.43661 | 37207 ft | 469 kts | 92° |
| 2026-04-20 16:09 | 38.22894 | -111.35442 | 37202 ft | 468 kts | 92° |
| 2026-04-20 16:10 | 38.22715 | -111.31273 | 37306 ft | 469 kts | 93° |
| 2026-04-20 16:10 | 38.22537 | -111.27162 | 37389 ft | 469 kts | 93° |
| 2026-04-20 16:10 | 38.22174 | -111.18913 | 37319 ft | 469 kts | 93° |
| 2026-04-20 16:11 | 38.21805 | -111.10672 | 37230 ft | 468 kts | 93° |
| 2026-04-20 16:11 | 38.21428 | -111.02399 | 37220 ft | 468 kts | 93° |
| 2026-04-20 16:12 | 38.21050 | -110.94197 | 37210 ft | 467 kts | 93° |
| 2026-04-20 16:12 | 38.20662 | -110.85925 | 37228 ft | 467 kts | 93° |
| 2026-04-20 16:13 | 38.20272 | -110.77737 | 37257 ft | 467 kts | 94° |
| 2026-04-20 16:13 | 38.19875 | -110.69527 | 37264 ft | 466 kts | 94° |
| 2026-04-20 16:14 | 38.19474 | -110.61304 | 37254 ft | 466 kts | 94° |
| 2026-04-20 16:14 | 38.19067 | -110.53110 | 37238 ft | 466 kts | 94° |
| 2026-04-20 16:15 | 38.18657 | -110.44925 | 37223 ft | 465 kts | 94° |
| 2026-04-20 16:15 | 38.18239 | -110.36714 | 37239 ft | 465 kts | 94° |
| 2026-04-20 16:16 | 38.17815 | -110.28528 | 37271 ft | 464 kts | 94° |
| 2026-04-20 16:16 | 38.17388 | -110.20414 | 37301 ft | 464 kts | 94° |
| 2026-04-20 16:17 | 38.16955 | -110.12265 | 37306 ft | 463 kts | 94° |
| 2026-04-20 16:17 | 38.16516 | -110.04129 | 37298 ft | 462 kts | 94° |
| 2026-04-20 16:18 | 38.16071 | -109.95989 | 37281 ft | 462 kts | 94° |
| 2026-04-20 16:18 | 38.15620 | -109.87839 | 37270 ft | 462 kts | 95° |
| 2026-04-20 16:19 | 38.15166 | -109.79766 | 37257 ft | 462 kts | 95° |
| 2026-04-20 16:19 | 38.14705 | -109.71655 | 37245 ft | 462 kts | 95° |
| 2026-04-20 16:20 | 38.14236 | -109.63480 | 37248 ft | 462 kts | 95° |
| 2026-04-20 16:20 | 38.13766 | -109.55379 | 37254 ft | 463 kts | 95° |
| 2026-04-20 16:21 | 38.13289 | -109.47257 | 37259 ft | 463 kts | 95° |
| 2026-04-20 16:21 | 38.12803 | -109.39094 | 37248 ft | 463 kts | 95° |
| 2026-04-20 16:22 | 38.12315 | -109.30975 | 37241 ft | 463 kts | 95° |
| 2026-04-20 16:22 | 38.11820 | -109.22829 | 37251 ft | 464 kts | 95° |
| 2026-04-20 16:23 | 38.11319 | -109.14674 | 37254 ft | 464 kts | 95° |
| 2026-04-20 16:23 | 38.10814 | -109.06574 | 37253 ft | 464 kts | 95° |
| 2026-04-20 16:24 | 38.10808 | -108.98364 | 37251 ft | 465 kts | 85° |
| 2026-04-20 16:24 | 38.11984 | -108.90357 | 37235 ft | 466 kts | 73° |
| 2026-04-20 16:25 | 38.14319 | -108.82724 | 37219 ft | 466 kts | 63° |
| 2026-04-20 16:25 | 38.17231 | -108.75355 | 37209 ft | 467 kts | 62° |
| 2026-04-20 16:26 | 38.20158 | -108.67990 | 37216 ft | 467 kts | 62° |
| 2026-04-20 16:26 | 38.23049 | -108.60636 | 37236 ft | 467 kts | 63° |
| 2026-04-20 16:27 | 38.25941 | -108.53234 | 37258 ft | 467 kts | 63° |
| 2026-04-20 16:27 | 38.28828 | -108.45821 | 37295 ft | 467 kts | 63° |
| 2026-04-20 16:28 | 38.31694 | -108.38438 | 37335 ft | 468 kts | 63° |
| 2026-04-20 16:28 | 38.34580 | -108.30991 | 37355 ft | 468 kts | 63° |
| 2026-04-20 16:29 | 38.37445 | -108.23576 | 37366 ft | 469 kts | 63° |
| 2026-04-20 16:29 | 38.40305 | -108.16156 | 37374 ft | 469 kts | 63° |
| 2026-04-20 16:30 | 38.43164 | -108.08716 | 37369 ft | 469 kts | 63° |
| 2026-04-20 16:30 | 38.46011 | -108.01299 | 37347 ft | 469 kts | 63° |
| 2026-04-20 16:31 | 38.48861 | -107.93787 | 37313 ft | 468 kts | 64° |
| 2026-04-20 16:31 | 38.51668 | -107.86346 | 37296 ft | 468 kts | 64° |
| 2026-04-20 16:32 | 38.54480 | -107.78870 | 37292 ft | 468 kts | 64° |
| 2026-04-20 16:32 | 38.57299 | -107.71368 | 37304 ft | 469 kts | 64° |
| 2026-04-20 16:33 | 38.60095 | -107.63908 | 37353 ft | 469 kts | 64° |
| 2026-04-20 16:33 | 38.62900 | -107.56403 | 37409 ft | 469 kts | 64° |
| 2026-04-20 16:34 | 38.65704 | -107.48891 | 37471 ft | 470 kts | 63° |
| 2026-04-20 16:34 | 38.68550 | -107.41371 | 37510 ft | 470 kts | 63° |
| 2026-04-20 16:35 | 38.71392 | -107.33879 | 37550 ft | 470 kts | 64° |
| 2026-04-20 16:35 | 38.74242 | -107.26334 | 37613 ft | 470 kts | 64° |
| 2026-04-20 16:36 | 38.77066 | -107.18834 | 37639 ft | 470 kts | 64° |
| 2026-04-20 16:36 | 38.79896 | -107.11297 | 37644 ft | 470 kts | 64° |
| 2026-04-20 16:37 | 38.82724 | -107.03748 | 37613 ft | 470 kts | 64° |
| 2026-04-20 16:37 | 38.85533 | -106.96229 | 37580 ft | 470 kts | 64° |
| 2026-04-20 16:38 | 38.88344 | -106.88684 | 37540 ft | 470 kts | 64° |
| 2026-04-20 16:38 | 38.91156 | -106.81117 | 37420 ft | 472 kts | 64° |
| 2026-04-20 16:39 | 38.92570 | -106.77306 | 37075 ft | 474 kts | 64° |
| 2026-04-20 16:39 | 38.93974 | -106.73515 | 36572 ft | 475 kts | 64° |
| 2026-04-20 16:39 | 38.95393 | -106.69679 | 35945 ft | 477 kts | 64° |
| 2026-04-20 16:39 | 38.96804 | -106.65862 | 35297 ft | 479 kts | 64° |
| 2026-04-20 16:40 | 38.98213 | -106.62045 | 34576 ft | 480 kts | 64° |
| 2026-04-20 16:40 | 38.99649 | -106.58151 | 33855 ft | 480 kts | 64° |
| 2026-04-20 16:40 | 39.01060 | -106.54311 | 33141 ft | 479 kts | 64° |
| 2026-04-20 16:40 | 39.02483 | -106.50428 | 32376 ft | 479 kts | 64° |
| 2026-04-20 16:41 | 39.03880 | -106.46608 | 31533 ft | 479 kts | 64° |
| 2026-04-20 16:41 | 39.05286 | -106.42754 | 30809 ft | 474 kts | 64° |
| 2026-04-20 16:41 | 39.06680 | -106.38930 | 30261 ft | 465 kts | 64° |
| 2026-04-20 16:41 | 39.08015 | -106.35262 | 29817 ft | 455 kts | 64° |
| 2026-04-20 16:42 | 39.09341 | -106.31619 | 29420 ft | 445 kts | 65° |
| 2026-04-20 16:42 | 39.10644 | -106.28032 | 28974 ft | 441 kts | 65° |
| 2026-04-20 16:42 | 39.11943 | -106.24454 | 28496 ft | 439 kts | 65° |
| 2026-04-20 16:42 | 39.13218 | -106.20934 | 28017 ft | 437 kts | 65° |
| 2026-04-20 16:43 | 39.14496 | -106.17405 | 27564 ft | 434 kts | 65° |
| 2026-04-20 16:43 | 39.15765 | -106.13894 | 27196 ft | 429 kts | 65° |
| 2026-04-20 16:43 | 39.17010 | -106.10434 | 27056 ft | 431 kts | 65° |
| 2026-04-20 16:43 | 39.18274 | -106.06923 | 26625 ft | 430 kts | 65° |
| 2026-04-20 16:44 | 39.19506 | -106.03485 | 26188 ft | 426 kts | 65° |
| 2026-04-20 16:44 | 39.20746 | -106.00015 | 25730 ft | 422 kts | 65° |
| 2026-04-20 16:44 | 39.21960 | -105.96617 | 25270 ft | 419 kts | 65° |
| 2026-04-20 16:44 | 39.23163 | -105.93254 | 24777 ft | 416 kts | 65° |
| 2026-04-20 16:45 | 39.24379 | -105.89857 | 24250 ft | 413 kts | 65° |
| 2026-04-20 16:45 | 39.25583 | -105.86513 | 23759 ft | 409 kts | 65° |
| 2026-04-20 16:45 | 39.26759 | -105.83247 | 23361 ft | 402 kts | 65° |
| 2026-04-20 16:45 | 39.27926 | -105.80009 | 22998 ft | 394 kts | 65° |
| 2026-04-20 16:46 | 39.29074 | -105.76821 | 22574 ft | 390 kts | 65° |
| 2026-04-20 16:46 | 39.30209 | -105.73665 | 22130 ft | 387 kts | 65° |
| 2026-04-20 16:46 | 39.31324 | -105.70560 | 21703 ft | 384 kts | 65° |
| 2026-04-20 16:46 | 39.32435 | -105.67462 | 21310 ft | 380 kts | 64° |
| 2026-04-20 16:47 | 39.33562 | -105.64356 | 20844 ft | 380 kts | 64° |
| 2026-04-20 16:47 | 39.34686 | -105.61286 | 20381 ft | 377 kts | 64° |
| 2026-04-20 16:47 | 39.35792 | -105.58268 | 20011 ft | 370 kts | 64° |
| 2026-04-20 16:47 | 39.36872 | -105.55308 | 19613 ft | 364 kts | 64° |
| 2026-04-20 16:48 | 39.37944 | -105.52370 | 19171 ft | 359 kts | 63° |
| 2026-04-20 16:48 | 39.38987 | -105.49514 | 18807 ft | 351 kts | 63° |
| 2026-04-20 16:48 | 39.40022 | -105.46682 | 18448 ft | 345 kts | 63° |
| 2026-04-20 16:48 | 39.41005 | -105.43881 | 18257 ft | 340 kts | 68° |
| 2026-04-20 16:49 | 39.41613 | -105.40930 | 18034 ft | 342 kts | 80° |
| 2026-04-20 16:49 | 39.41775 | -105.37903 | 17581 ft | 341 kts | 88° |
| 2026-04-20 16:49 | 39.41784 | -105.34837 | 17154 ft | 338 kts | 90° |
| 2026-04-20 16:49 | 39.41774 | -105.31819 | 16742 ft | 337 kts | 90° |
| 2026-04-20 16:50 | 39.41769 | -105.28807 | 16338 ft | 337 kts | 90° |
| 2026-04-20 16:50 | 39.41772 | -105.25779 | 15929 ft | 336 kts | 90° |
| 2026-04-20 16:50 | 39.41782 | -105.22760 | 15538 ft | 335 kts | 90° |
| 2026-04-20 16:50 | 39.41793 | -105.19794 | 15157 ft | 334 kts | 90° |
| 2026-04-20 16:51 | 39.41807 | -105.16793 | 14783 ft | 331 kts | 90° |
| 2026-04-20 16:51 | 39.41817 | -105.13837 | 14505 ft | 327 kts | 90° |
| 2026-04-20 16:51 | 39.41826 | -105.10931 | 14199 ft | 321 kts | 90° |
| 2026-04-20 16:51 | 39.41836 | -105.08070 | 13897 ft | 316 kts | 90° |
| 2026-04-20 16:52 | 39.41846 | -105.05252 | 13572 ft | 311 kts | 90° |
| 2026-04-20 16:52 | 39.41858 | -105.02491 | 13273 ft | 304 kts | 90° |
| 2026-04-20 16:52 | 39.41868 | -104.99800 | 12992 ft | 298 kts | 90° |
| 2026-04-20 16:52 | 39.41874 | -104.97150 | 12813 ft | 288 kts | 90° |
| 2026-04-20 16:53 | 39.41896 | -104.94652 | 12727 ft | 274 kts | 87° |
| 2026-04-20 16:53 | 39.42060 | -104.92231 | 12720 ft | 268 kts | 84° |
| 2026-04-20 16:53 | 39.42271 | -104.89841 | 12675 ft | 270 kts | 83° |
| 2026-04-20 16:53 | 39.42489 | -104.87448 | 12426 ft | 268 kts | 83° |
| 2026-04-20 16:54 | 39.42705 | -104.85062 | 12175 ft | 266 kts | 83° |
| 2026-04-20 16:54 | 39.42916 | -104.82705 | 11923 ft | 265 kts | 84° |
| 2026-04-20 16:54 | 39.43126 | -104.80346 | 11680 ft | 264 kts | 84° |
| 2026-04-20 16:54 | 39.43335 | -104.77985 | 11429 ft | 264 kts | 83° |
| 2026-04-20 16:55 | 39.43695 | -104.75667 | 11159 ft | 261 kts | 72° |
| 2026-04-20 16:55 | 39.44311 | -104.73478 | 11015 ft | 260 kts | 67° |
| 2026-04-20 16:55 | 39.45006 | -104.71299 | 11022 ft | 262 kts | 66° |
| 2026-04-20 16:55 | 39.45919 | -104.69299 | 11006 ft | 260 kts | 41° |
| 2026-04-20 16:56 | 39.47477 | -104.68236 | 11045 ft | 257 kts | 12° |
| 2026-04-20 16:56 | 39.49234 | -104.67723 | 11061 ft | 258 kts | 10° |
| 2026-04-20 16:56 | 39.50996 | -104.67200 | 11055 ft | 258 kts | 11° |
| 2026-04-20 16:56 | 39.52734 | -104.66664 | 11052 ft | 258 kts | 8° |
| 2026-04-20 16:57 | 39.54517 | -104.66383 | 11048 ft | 257 kts | 1° |
| 2026-04-20 16:57 | 39.56300 | -104.66318 | 11008 ft | 257 kts | 358° |
| 2026-04-20 16:57 | 39.58086 | -104.66313 | 10716 ft | 250 kts | 358° |
| 2026-04-20 16:57 | 39.59758 | -104.66309 | 10401 ft | 235 kts | 358° |
| 2026-04-20 16:58 | 39.61359 | -104.66284 | 10001 ft | 225 kts | 359° |
| 2026-04-20 16:58 | 39.62883 | -104.66275 | 9559 ft | 218 kts | 358° |
| 2026-04-20 16:58 | 39.64393 | -104.66266 | 9040 ft | 214 kts | 359° |
| 2026-04-20 16:58 | 39.65844 | -104.66234 | 8661 ft | 202 kts | 359° |
| 2026-04-20 16:59 | 39.67196 | -104.66208 | 8347 ft | 188 kts | 358° |
| 2026-04-20 16:59 | 39.68471 | -104.66195 | 8015 ft | 178 kts | 358° |
| 2026-04-20 16:59 | 39.69673 | -104.66203 | 7672 ft | 170 kts | 358° |
| 2026-04-20 16:59 | 39.70856 | -104.66179 | 7462 ft | 170 kts | 360° |
| 2026-04-20 17:00 | 39.73204 | -104.66103 | 7163 ft | 166 kts | 358° |
| 2026-04-20 17:00 | 39.74355 | -104.66103 | 6917 ft | 163 kts | 358° |
| 2026-04-20 17:00 | 39.75476 | -104.66123 | 6673 ft | 161 kts | 357° |
| 2026-04-20 17:01 | 39.76589 | -104.66135 | 6484 ft | 160 kts | 359° |
| 2026-04-20 17:01 | 39.77712 | -104.66106 | 6320 ft | 162 kts | 358° |
| 2026-04-20 17:01 | 39.78844 | -104.66110 | 6151 ft | 164 kts | 358° |
| 2026-04-20 17:01 | 39.79997 | -104.66090 | 5971 ft | 164 kts | 358° |
| 2026-04-20 17:02 | 39.81130 | -104.66072 | 5687 ft | 162 kts | 358° |
| 2026-04-20 17:02 | 39.82241 | -104.66058 | 5476 ft | 156 kts | 356° |
| 2026-04-20 17:02 | 39.83306 | -104.66045 | 5332 ft | 150 kts | 357° |
| 2026-04-20 17:02 | 39.84209 | -104.66047 | 5329 ft | 104 kts | 1° |
| 2026-04-20 17:03 | 39.84751 | -104.66072 | 5329 ft | 48 kts | 343° |
| 2026-04-20 17:03 | 39.84969 | -104.66209 | 5328 ft | 28 kts | 336° |
| 2026-04-20 17:03 | 39.85155 | -104.66242 | 5328 ft | 26 kts | 360° |
| 2026-04-20 17:03 | 39.85335 | -104.66240 | 5328 ft | 24 kts | 359° |
| 2026-04-20 17:04 | 39.85504 | -104.66238 | 5328 ft | 23 kts | 1° |
| 2026-04-20 17:04 | 39.85661 | -104.66256 | 5328 ft | 21 kts | 316° |
| 2026-04-20 17:04 | 39.85678 | -104.66440 | 5328 ft | 20 kts | 269° |
| 2026-04-20 17:04 | 39.85688 | -104.66614 | 5328 ft | 18 kts | 285° |
| 2026-04-20 17:05 | 39.85714 | -104.66773 | 5328 ft | 15 kts | 266° |
| 2026-04-20 17:05 | 39.85728 | -104.66908 | 5328 ft | 14 kts | 271° |
| 2026-04-20 17:05 | 39.85762 | -104.66956 | 5328 ft | 7 kts | 352° |
| 2026-04-20 17:05 | 39.85797 | -104.66955 | 5328 ft | 2 kts | 1° |